sensor_id;sensor_type;location;lat;lon;timestamp;temperature;humidity
20035;DHT22;10178;48.034;9.800;2023-09-18T00:00:50;21.80;99.90
20035;DHT22;10178;48.034;9.800;2023-09-18T00:03:21;21.80;99.90
20035;DHT22;10178;48.034;9.800;2023-09-18T00:05:48;21.70;99.90
20035;DHT22;10178;48.034;9.800;2023-09-18T00:08:14;21.70;99.90
20035;DHT22;10178;48.034;9.800;2023-09-18T00:10:41;21.70;99.90
20035;DHT22;10178;48.034;9.800;2023-09-18T00:13:06;21.60;99.90
20035;DHT22;10178;48.034;9.800;2023-09-18T00:15:32;21.60;99.90
20035;DHT22;10178;48.034;9.800;2023-09-18T00:17:58;21.60;99.90
20035;DHT22;10178;48.034;9.800;2023-09-18T00:20:23;21.60;99.90
20035;DHT22;10178;48.034;9.800;2023-09-18T00:22:55;21.60;99.90
20035;DHT22;10178;48.034;9.800;2023-09-18T00:25:22;21.60;99.90
20035;DHT22;10178;48.034;9.800;2023-09-18T00:27:48;21.60;99.90
20035;DHT22;10178;48.034;9.800;2023-09-18T00:30:14;21.40;99.90
20035;DHT22;10178;48.034;9.800;2023-09-18T00:32:39;21.00;99.90
20035;DHT22;10178;48.034;9.800;2023-09-18T00:35:05;21.00;99.90
20035;DHT22;10178;48.034;9.800;2023-09-18T00:37:31;21.20;99.90
20035;DHT22;10178;48.034;9.800;2023-09-18T00:39:56;21.30;99.90
20035;DHT22;10178;48.034;9.800;2023-09-18T00:42:22;21.40;99.90
20035;DHT22;10178;48.034;9.800;2023-09-18T00:44:48;21.30;99.90
20035;DHT22;10178;48.034;9.800;2023-09-18T00:47:15;20.80;99.90
20035;DHT22;10178;48.034;9.800;2023-09-18T00:49:43;20.90;99.90
20035;DHT22;10178;48.034;9.800;2023-09-18T00:52:10;21.10;99.90
20035;DHT22;10178;48.034;9.800;2023-09-18T00:54:37;21.20;99.90
20035;DHT22;10178;48.034;9.800;2023-09-18T00:57:05;21.20;99.90
20035;DHT22;10178;48.034;9.800;2023-09-18T00:59:31;21.30;99.90
20035;DHT22;10178;48.034;9.800;2023-09-18T01:01:57;21.30;99.90
20035;DHT22;10178;48.034;9.800;2023-09-18T01:04:23;21.30;99.90
20035;DHT22;10178;48.034;9.800;2023-09-18T01:06:51;21.00;99.90
20035;DHT22;10178;48.034;9.800;2023-09-18T01:09:18;20.20;99.90
20035;DHT22;10178;48.034;9.800;2023-09-18T01:14:20;20.80;99.90
20035;DHT22;10178;48.034;9.800;2023-09-18T01:16:57;21.00;99.90
20035;DHT22;10178;48.034;9.800;2023-09-18T01:19:40;21.10;99.90
20035;DHT22;10178;48.034;9.800;2023-09-18T01:22:07;20.80;99.90
20035;DHT22;10178;48.034;9.800;2023-09-18T01:24:34;20.90;99.90
20035;DHT22;10178;48.034;9.800;2023-09-18T01:27:00;21.00;99.90
20035;DHT22;10178;48.034;9.800;2023-09-18T01:29:26;21.10;99.90
20035;DHT22;10178;48.034;9.800;2023-09-18T01:31:53;21.20;99.90
20035;DHT22;10178;48.034;9.800;2023-09-18T01:34:25;21.10;99.90
20035;DHT22;10178;48.034;9.800;2023-09-18T01:36:52;21.10;99.90
20035;DHT22;10178;48.034;9.800;2023-09-18T01:39:19;21.20;99.90
20035;DHT22;10178;48.034;9.800;2023-09-18T01:41:45;21.20;99.90
20035;DHT22;10178;48.034;9.800;2023-09-18T01:44:12;21.10;99.90
20035;DHT22;10178;48.034;9.800;2023-09-18T01:46:38;21.10;99.90
20035;DHT22;10178;48.034;9.800;2023-09-18T01:49:04;21.10;99.90
20035;DHT22;10178;48.034;9.800;2023-09-18T01:51:30;20.80;99.90
20035;DHT22;10178;48.034;9.800;2023-09-18T01:53:56;20.90;99.90
20035;DHT22;10178;48.034;9.800;2023-09-18T01:56:23;21.00;99.90
20035;DHT22;10178;48.034;9.800;2023-09-18T01:58:49;21.00;99.90
20035;DHT22;10178;48.034;9.800;2023-09-18T02:01:15;21.00;99.90
20035;DHT22;10178;48.034;9.800;2023-09-18T02:03:41;20.90;99.90
20035;DHT22;10178;48.034;9.800;2023-09-18T02:06:14;20.90;99.90
20035;DHT22;10178;48.034;9.800;2023-09-18T02:08:40;20.90;99.90
20035;DHT22;10178;48.034;9.800;2023-09-18T02:11:05;20.90;99.90
20035;DHT22;10178;48.034;9.800;2023-09-18T02:13:31;20.80;99.90
20035;DHT22;10178;48.034;9.800;2023-09-18T02:15:57;20.90;99.90
20035;DHT22;10178;48.034;9.800;2023-09-18T02:18:22;20.90;99.90
20035;DHT22;10178;48.034;9.800;2023-09-18T02:20:48;20.80;99.90
20035;DHT22;10178;48.034;9.800;2023-09-18T02:23:17;20.90;99.90
20035;DHT22;10178;48.034;9.800;2023-09-18T02:25:44;20.90;99.90
20035;DHT22;10178;48.034;9.800;2023-09-18T02:28:10;20.90;99.90
20035;DHT22;10178;48.034;9.800;2023-09-18T02:30:36;20.90;99.90
20035;DHT22;10178;48.034;9.800;2023-09-18T02:33:01;20.90;99.90
20035;DHT22;10178;48.034;9.800;2023-09-18T02:35:29;20.90;99.90
20035;DHT22;10178;48.034;9.800;2023-09-18T02:37:55;20.90;99.90
20035;DHT22;10178;48.034;9.800;2023-09-18T02:40:20;20.90;99.90
20035;DHT22;10178;48.034;9.800;2023-09-18T02:42:46;20.90;99.90
20035;DHT22;10178;48.034;9.800;2023-09-18T02:45:11;20.80;99.90
20035;DHT22;10178;48.034;9.800;2023-09-18T02:47:37;20.80;99.90
20035;DHT22;10178;48.034;9.800;2023-09-18T02:50:07;20.80;99.90
20035;DHT22;10178;48.034;9.800;2023-09-18T02:52:32;20.70;99.90
20035;DHT22;10178;48.034;9.800;2023-09-18T02:54:58;20.70;99.90
20035;DHT22;10178;48.034;9.800;2023-09-18T02:57:24;20.70;99.90
20035;DHT22;10178;48.034;9.800;2023-09-18T02:59:49;20.70;99.90
20035;DHT22;10178;48.034;9.800;2023-09-18T03:02:15;20.70;99.90
20035;DHT22;10178;48.034;9.800;2023-09-18T03:04:40;20.70;99.90
20035;DHT22;10178;48.034;9.800;2023-09-18T03:07:06;20.70;99.90
20035;DHT22;10178;48.034;9.800;2023-09-18T03:09:32;20.70;99.90
20035;DHT22;10178;48.034;9.800;2023-09-18T03:11:57;20.60;99.90
20035;DHT22;10178;48.034;9.800;2023-09-18T03:14:23;20.60;99.90
20035;DHT22;10178;48.034;9.800;2023-09-18T03:16:48;20.60;99.90
20035;DHT22;10178;48.034;9.800;2023-09-18T03:19:15;20.50;99.90
20035;DHT22;10178;48.034;9.800;2023-09-18T03:21:41;20.50;99.90
20035;DHT22;10178;48.034;9.800;2023-09-18T03:24:07;20.60;99.90
20035;DHT22;10178;48.034;9.800;2023-09-18T03:26:32;20.60;99.90
20035;DHT22;10178;48.034;9.800;2023-09-18T03:28:58;20.50;99.90
20035;DHT22;10178;48.034;9.800;2023-09-18T03:31:24;20.50;99.90
20035;DHT22;10178;48.034;9.800;2023-09-18T03:33:49;20.50;99.90
20035;DHT22;10178;48.034;9.800;2023-09-18T03:36:16;20.50;99.90
20035;DHT22;10178;48.034;9.800;2023-09-18T03:38:41;19.70;99.90
20035;DHT22;10178;48.034;9.800;2023-09-18T03:41:07;19.80;99.90
20035;DHT22;10178;48.034;9.800;2023-09-18T03:43:33;19.90;99.90
20035;DHT22;10178;48.034;9.800;2023-09-18T03:46:05;20.00;99.90
20035;DHT22;10178;48.034;9.800;2023-09-18T03:48:31;19.80;99.90
20035;DHT22;10178;48.034;9.800;2023-09-18T03:51:02;20.00;99.90
20035;DHT22;10178;48.034;9.800;2023-09-18T03:53:27;20.10;99.90
20035;DHT22;10178;48.034;9.800;2023-09-18T03:55:53;20.20;99.90
20035;DHT22;10178;48.034;9.800;2023-09-18T03:58:18;20.30;99.90
20035;DHT22;10178;48.034;9.800;2023-09-18T04:00:45;20.30;99.90
20035;DHT22;10178;48.034;9.800;2023-09-18T04:03:11;20.30;99.90
20035;DHT22;10178;48.034;9.800;2023-09-18T04:05:36;20.10;99.90
20035;DHT22;10178;48.034;9.800;2023-09-18T04:08:02;19.80;99.90
20035;DHT22;10178;48.034;9.800;2023-09-18T04:10:28;19.80;99.90
20035;DHT22;10178;48.034;9.800;2023-09-18T04:12:53;19.80;99.90
20035;DHT22;10178;48.034;9.800;2023-09-18T04:15:19;18.80;99.90
20035;DHT22;10178;48.034;9.800;2023-09-18T04:17:45;18.10;99.90
20035;DHT22;10178;48.034;9.800;2023-09-18T04:20:11;18.60;99.90
20035;DHT22;10178;48.034;9.800;2023-09-18T04:22:43;19.10;99.90
20035;DHT22;10178;48.034;9.800;2023-09-18T04:25:09;19.40;99.90
20035;DHT22;10178;48.034;9.800;2023-09-18T04:27:34;19.60;99.90
20035;DHT22;10178;48.034;9.800;2023-09-18T04:30:00;19.70;99.90
20035;DHT22;10178;48.034;9.800;2023-09-18T04:32:27;19.80;99.90
20035;DHT22;10178;48.034;9.800;2023-09-18T04:34:54;19.90;99.90
20035;DHT22;10178;48.034;9.800;2023-09-18T04:37:20;19.90;99.90
20035;DHT22;10178;48.034;9.800;2023-09-18T04:39:46;18.50;99.90
20035;DHT22;10178;48.034;9.800;2023-09-18T04:42:11;17.10;99.90
20035;DHT22;10178;48.034;9.800;2023-09-18T04:44:37;17.00;99.90
20035;DHT22;10178;48.034;9.800;2023-09-18T04:47:03;17.50;99.90
20035;DHT22;10178;48.034;9.800;2023-09-18T04:49:28;17.60;99.90
20035;DHT22;10178;48.034;9.800;2023-09-18T04:51:55;17.90;99.90
20035;DHT22;10178;48.034;9.800;2023-09-18T04:54:21;18.50;99.90
20035;DHT22;10178;48.034;9.800;2023-09-18T04:56:46;18.90;99.90
20035;DHT22;10178;48.034;9.800;2023-09-18T04:59:12;19.20;99.90
20035;DHT22;10178;48.034;9.800;2023-09-18T05:01:38;19.40;99.90
20035;DHT22;10178;48.034;9.800;2023-09-18T05:04:04;19.50;99.90
20035;DHT22;10178;48.034;9.800;2023-09-18T05:06:29;18.50;99.90
20035;DHT22;10178;48.034;9.800;2023-09-18T05:08:55;18.10;99.90
20035;DHT22;10178;48.034;9.800;2023-09-18T05:11:21;18.20;99.90
20035;DHT22;10178;48.034;9.800;2023-09-18T05:13:47;18.60;99.90
20035;DHT22;10178;48.034;9.800;2023-09-18T05:16:12;18.70;99.90
20035;DHT22;10178;48.034;9.800;2023-09-18T05:18:38;19.10;99.90
20035;DHT22;10178;48.034;9.800;2023-09-18T05:21:04;19.20;99.90
20035;DHT22;10178;48.034;9.800;2023-09-18T05:23:30;19.00;99.90
20035;DHT22;10178;48.034;9.800;2023-09-18T05:25:56;18.30;99.90
20035;DHT22;10178;48.034;9.800;2023-09-18T05:28:21;17.50;99.90
20035;DHT22;10178;48.034;9.800;2023-09-18T05:30:47;17.20;99.90
20035;DHT22;10178;48.034;9.800;2023-09-18T05:33:13;17.80;99.90
20035;DHT22;10178;48.034;9.800;2023-09-18T05:35:43;18.40;99.90
20035;DHT22;10178;48.034;9.800;2023-09-18T05:38:11;18.80;99.90
20035;DHT22;10178;48.034;9.800;2023-09-18T05:40:39;19.10;99.90
20035;DHT22;10178;48.034;9.800;2023-09-18T05:43:05;19.30;99.90
20035;DHT22;10178;48.034;9.800;2023-09-18T05:45:31;19.30;99.90
20035;DHT22;10178;48.034;9.800;2023-09-18T05:47:58;19.40;99.90
20035;DHT22;10178;48.034;9.800;2023-09-18T05:50:33;19.40;99.90
20035;DHT22;10178;48.034;9.800;2023-09-18T05:53:00;18.70;99.90
20035;DHT22;10178;48.034;9.800;2023-09-18T05:55:30;18.90;99.90
20035;DHT22;10178;48.034;9.800;2023-09-18T05:57:56;18.60;99.90
20035;DHT22;10178;48.034;9.800;2023-09-18T06:00:23;18.20;99.90
20035;DHT22;10178;48.034;9.800;2023-09-18T06:02:49;18.50;99.90
20035;DHT22;10178;48.034;9.800;2023-09-18T06:05:17;18.90;99.90
20035;DHT22;10178;48.034;9.800;2023-09-18T06:07:43;19.20;99.90
20035;DHT22;10178;48.034;9.800;2023-09-18T06:10:10;19.10;99.90
20035;DHT22;10178;48.034;9.800;2023-09-18T06:12:38;18.50;99.90
20035;DHT22;10178;48.034;9.800;2023-09-18T06:15:08;18.80;99.90
20035;DHT22;10178;48.034;9.800;2023-09-18T06:17:42;19.10;99.90
20035;DHT22;10178;48.034;9.800;2023-09-18T06:20:09;19.40;99.90
20035;DHT22;10178;48.034;9.800;2023-09-18T06:22:36;19.50;99.90
20035;DHT22;10178;48.034;9.800;2023-09-18T06:25:03;19.60;99.90
20035;DHT22;10178;48.034;9.800;2023-09-18T06:27:29;19.70;99.90
20035;DHT22;10178;48.034;9.800;2023-09-18T06:29:55;19.70;99.90
20035;DHT22;10178;48.034;9.800;2023-09-18T06:32:20;19.70;99.90
20035;DHT22;10178;48.034;9.800;2023-09-18T06:34:47;19.70;99.90
20035;DHT22;10178;48.034;9.800;2023-09-18T06:37:12;19.80;99.90
20035;DHT22;10178;48.034;9.800;2023-09-18T06:39:38;19.80;99.90
20035;DHT22;10178;48.034;9.800;2023-09-18T06:42:05;19.80;99.90
20035;DHT22;10178;48.034;9.800;2023-09-18T06:44:30;19.90;99.90
20035;DHT22;10178;48.034;9.800;2023-09-18T06:46:56;19.90;99.90
20035;DHT22;10178;48.034;9.800;2023-09-18T06:49:23;19.90;99.90
20035;DHT22;10178;48.034;9.800;2023-09-18T06:51:49;19.70;99.90
20035;DHT22;10178;48.034;9.800;2023-09-18T06:54:15;19.40;99.90
20035;DHT22;10178;48.034;9.800;2023-09-18T06:56:40;19.40;99.90
20035;DHT22;10178;48.034;9.800;2023-09-18T06:59:07;19.60;99.90
20035;DHT22;10178;48.034;9.800;2023-09-18T07:01:32;19.80;99.90
20035;DHT22;10178;48.034;9.800;2023-09-18T07:03:59;19.90;99.90
20035;DHT22;10178;48.034;9.800;2023-09-18T07:06:25;19.90;99.90
20035;DHT22;10178;48.034;9.800;2023-09-18T07:08:51;19.90;99.90
20035;DHT22;10178;48.034;9.800;2023-09-18T07:11:17;20.00;99.90
20035;DHT22;10178;48.034;9.800;2023-09-18T07:13:43;19.80;99.90
20035;DHT22;10178;48.034;9.800;2023-09-18T07:16:09;19.50;99.90
20035;DHT22;10178;48.034;9.800;2023-09-18T07:18:36;19.10;99.90
20035;DHT22;10178;48.034;9.800;2023-09-18T07:21:01;19.30;99.90
20035;DHT22;10178;48.034;9.800;2023-09-18T07:23:27;19.50;99.90
20035;DHT22;10178;48.034;9.800;2023-09-18T07:25:53;19.70;99.90
20035;DHT22;10178;48.034;9.800;2023-09-18T07:28:19;19.80;99.90
20035;DHT22;10178;48.034;9.800;2023-09-18T07:30:45;19.90;99.90
20035;DHT22;10178;48.034;9.800;2023-09-18T07:33:13;19.90;99.90
20035;DHT22;10178;48.034;9.800;2023-09-18T07:35:40;20.00;99.90
20035;DHT22;10178;48.034;9.800;2023-09-18T07:38:06;20.00;99.90
20035;DHT22;10178;48.034;9.800;2023-09-18T07:40:32;20.10;99.90
20035;DHT22;10178;48.034;9.800;2023-09-18T07:42:57;20.10;99.90
20035;DHT22;10178;48.034;9.800;2023-09-18T07:45:23;20.00;99.90
20035;DHT22;10178;48.034;9.800;2023-09-18T07:47:49;19.90;99.90
20035;DHT22;10178;48.034;9.800;2023-09-18T07:50:15;19.90;99.90
20035;DHT22;10178;48.034;9.800;2023-09-18T07:52:41;19.90;99.90
20035;DHT22;10178;48.034;9.800;2023-09-18T07:55:07;20.00;99.90
20035;DHT22;10178;48.034;9.800;2023-09-18T07:57:33;20.00;99.90
20035;DHT22;10178;48.034;9.800;2023-09-18T08:00:00;19.90;99.90
20035;DHT22;10178;48.034;9.800;2023-09-18T08:02:33;20.00;99.90
20035;DHT22;10178;48.034;9.800;2023-09-18T08:05:00;20.00;99.90
20035;DHT22;10178;48.034;9.800;2023-09-18T08:07:27;19.90;99.90
20035;DHT22;10178;48.034;9.800;2023-09-18T08:09:53;19.80;99.90
20035;DHT22;10178;48.034;9.800;2023-09-18T08:12:19;19.90;99.90
20035;DHT22;10178;48.034;9.800;2023-09-18T08:14:45;19.90;99.90
20035;DHT22;10178;48.034;9.800;2023-09-18T08:17:12;19.90;99.90
20035;DHT22;10178;48.034;9.800;2023-09-18T08:19:37;19.80;99.90
20035;DHT22;10178;48.034;9.800;2023-09-18T08:22:05;19.70;99.90
20035;DHT22;10178;48.034;9.800;2023-09-18T08:24:30;19.60;99.90
20035;DHT22;10178;48.034;9.800;2023-09-18T08:26:56;19.60;99.90
20035;DHT22;10178;48.034;9.800;2023-09-18T08:29:22;19.60;99.90
20035;DHT22;10178;48.034;9.800;2023-09-18T08:31:48;19.70;99.90
20035;DHT22;10178;48.034;9.800;2023-09-18T08:34:14;19.60;99.90
20035;DHT22;10178;48.034;9.800;2023-09-18T08:36:40;19.60;99.90
20035;DHT22;10178;48.034;9.800;2023-09-18T08:39:06;19.50;99.90
20035;DHT22;10178;48.034;9.800;2023-09-18T08:41:32;19.60;99.90
20035;DHT22;10178;48.034;9.800;2023-09-18T08:44:02;19.80;99.90
20035;DHT22;10178;48.034;9.800;2023-09-18T08:46:30;19.90;99.90
20035;DHT22;10178;48.034;9.800;2023-09-18T08:48:57;20.00;99.90
20035;DHT22;10178;48.034;9.800;2023-09-18T08:51:23;20.00;99.90
20035;DHT22;10178;48.034;9.800;2023-09-18T08:53:49;20.00;99.90
20035;DHT22;10178;48.034;9.800;2023-09-18T08:56:17;19.90;99.90
20035;DHT22;10178;48.034;9.800;2023-09-18T08:58:43;19.90;99.90
20035;DHT22;10178;48.034;9.800;2023-09-18T09:01:10;19.90;99.90
20035;DHT22;10178;48.034;9.800;2023-09-18T09:03:43;20.00;99.90
20035;DHT22;10178;48.034;9.800;2023-09-18T09:06:11;20.00;99.90
20035;DHT22;10178;48.034;9.800;2023-09-18T09:08:37;19.90;99.90
20035;DHT22;10178;48.034;9.800;2023-09-18T09:11:03;19.80;99.90
20035;DHT22;10178;48.034;9.800;2023-09-18T09:13:29;19.90;99.90
20035;DHT22;10178;48.034;9.800;2023-09-18T09:15:57;19.90;99.90
20035;DHT22;10178;48.034;9.800;2023-09-18T09:18:24;20.00;99.90
20035;DHT22;10178;48.034;9.800;2023-09-18T09:23:24;20.00;99.90
20035;DHT22;10178;48.034;9.800;2023-09-18T09:25:50;19.90;99.90
20035;DHT22;10178;48.034;9.800;2023-09-18T09:28:16;20.00;99.90
20035;DHT22;10178;48.034;9.800;2023-09-18T09:30:42;20.00;99.90
20035;DHT22;10178;48.034;9.800;2023-09-18T09:33:12;20.00;99.90
20035;DHT22;10178;48.034;9.800;2023-09-18T09:35:38;20.00;99.90
20035;DHT22;10178;48.034;9.800;2023-09-18T09:38:09;19.90;99.90
20035;DHT22;10178;48.034;9.800;2023-09-18T09:40:36;19.90;99.90
20035;DHT22;10178;48.034;9.800;2023-09-18T09:43:03;19.60;99.90
20035;DHT22;10178;48.034;9.800;2023-09-18T09:45:31;19.20;99.90
20035;DHT22;10178;48.034;9.800;2023-09-18T09:48:02;19.10;99.90
20035;DHT22;10178;48.034;9.800;2023-09-18T09:50:30;19.10;99.90
20035;DHT22;10178;48.034;9.800;2023-09-18T09:52:56;18.80;99.90
20035;DHT22;10178;48.034;9.800;2023-09-18T09:55:22;18.60;99.90
20035;DHT22;10178;48.034;9.800;2023-09-18T09:57:52;18.50;99.90
20035;DHT22;10178;48.034;9.800;2023-09-18T10:00:18;18.70;99.90
20035;DHT22;10178;48.034;9.800;2023-09-18T10:02:58;18.90;99.90
20035;DHT22;10178;48.034;9.800;2023-09-18T10:05:35;18.50;99.90
20035;DHT22;10178;48.034;9.800;2023-09-18T10:08:17;18.50;99.90
20035;DHT22;10178;48.034;9.800;2023-09-18T10:10:47;18.50;99.90
20035;DHT22;10178;48.034;9.800;2023-09-18T10:13:32;18.40;99.90
20035;DHT22;10178;48.034;9.800;2023-09-18T10:16:00;18.70;99.90
20035;DHT22;10178;48.034;9.800;2023-09-18T10:18:49;18.70;99.90
20035;DHT22;10178;48.034;9.800;2023-09-18T10:21:26;18.70;99.90
20035;DHT22;10178;48.034;9.800;2023-09-18T10:24:04;18.80;99.90
20035;DHT22;10178;48.034;9.800;2023-09-18T10:26:37;18.70;99.90
20035;DHT22;10178;48.034;9.800;2023-09-18T10:29:05;18.50;99.90
20035;DHT22;10178;48.034;9.800;2023-09-18T10:31:34;18.50;99.90
20035;DHT22;10178;48.034;9.800;2023-09-18T10:34:03;18.30;99.90
20035;DHT22;10178;48.034;9.800;2023-09-18T10:36:30;18.50;99.90
20035;DHT22;10178;48.034;9.800;2023-09-18T10:38:57;18.30;99.90
20035;DHT22;10178;48.034;9.800;2023-09-18T10:41:26;18.00;99.90
20035;DHT22;10178;48.034;9.800;2023-09-18T10:43:53;18.00;99.90
20035;DHT22;10178;48.034;9.800;2023-09-18T10:46:22;17.60;99.90
20035;DHT22;10178;48.034;9.800;2023-09-18T10:48:48;17.30;99.90
20035;DHT22;10178;48.034;9.800;2023-09-18T10:51:14;17.20;99.90
20035;DHT22;10178;48.034;9.800;2023-09-18T10:53:40;17.10;99.90
20035;DHT22;10178;48.034;9.800;2023-09-18T10:56:06;17.00;99.90
20035;DHT22;10178;48.034;9.800;2023-09-18T10:58:33;17.10;99.90
20035;DHT22;10178;48.034;9.800;2023-09-18T11:01:05;17.10;99.90
20035;DHT22;10178;48.034;9.800;2023-09-18T11:03:33;17.20;99.90
20035;DHT22;10178;48.034;9.800;2023-09-18T11:06:04;17.60;99.90
20035;DHT22;10178;48.034;9.800;2023-09-18T11:08:49;17.70;99.90
20035;DHT22;10178;48.034;9.800;2023-09-18T11:11:18;17.50;99.90
20035;DHT22;10178;48.034;9.800;2023-09-18T11:13:52;17.70;99.90
20035;DHT22;10178;48.034;9.800;2023-09-18T11:21:28;18.00;99.90
20035;DHT22;10178;48.034;9.800;2023-09-18T11:24:08;17.70;99.90
20035;DHT22;10178;48.034;9.800;2023-09-18T11:26:48;17.70;99.90
20035;DHT22;10178;48.034;9.800;2023-09-18T11:29:22;17.70;99.90
20035;DHT22;10178;48.034;9.800;2023-09-18T11:31:49;17.50;99.90
20035;DHT22;10178;48.034;9.800;2023-09-18T11:36:58;17.80;99.90
20035;DHT22;10178;48.034;9.800;2023-09-18T11:39:36;18.00;99.90
20035;DHT22;10178;48.034;9.800;2023-09-18T11:42:13;17.80;99.90
20035;DHT22;10178;48.034;9.800;2023-09-18T11:44:41;17.80;99.90
20035;DHT22;10178;48.034;9.800;2023-09-18T11:47:17;17.70;99.90
20035;DHT22;10178;48.034;9.800;2023-09-18T11:49:51;17.70;99.90
20035;DHT22;10178;48.034;9.800;2023-09-18T11:52:22;17.70;99.90
20035;DHT22;10178;48.034;9.800;2023-09-18T11:54:48;17.60;99.90
20035;DHT22;10178;48.034;9.800;2023-09-18T11:57:15;17.50;99.90
20035;DHT22;10178;48.034;9.800;2023-09-18T11:59:42;17.50;99.90
20035;DHT22;10178;48.034;9.800;2023-09-18T12:02:09;17.50;99.90
20035;DHT22;10178;48.034;9.800;2023-09-18T12:04:35;17.50;99.90
20035;DHT22;10178;48.034;9.800;2023-09-18T12:07:03;17.50;99.90
20035;DHT22;10178;48.034;9.800;2023-09-18T12:09:39;17.40;99.90
20035;DHT22;10178;48.034;9.800;2023-09-18T12:12:08;17.10;99.90
20035;DHT22;10178;48.034;9.800;2023-09-18T12:14:34;17.10;99.90
20035;DHT22;10178;48.034;9.800;2023-09-18T12:17:01;17.20;99.90
20035;DHT22;10178;48.034;9.800;2023-09-18T12:19:28;17.20;99.90
20035;DHT22;10178;48.034;9.800;2023-09-18T12:21:54;17.20;99.90
20035;DHT22;10178;48.034;9.800;2023-09-18T12:24:24;17.20;99.90
20035;DHT22;10178;48.034;9.800;2023-09-18T12:26:51;17.10;99.90
20035;DHT22;10178;48.034;9.800;2023-09-18T12:29:17;17.10;99.90
20035;DHT22;10178;48.034;9.800;2023-09-18T12:31:42;17.20;99.90
20035;DHT22;10178;48.034;9.800;2023-09-18T12:34:15;17.00;99.90
20035;DHT22;10178;48.034;9.800;2023-09-18T12:36:43;16.90;99.90
20035;DHT22;10178;48.034;9.800;2023-09-18T12:39:08;16.90;99.90
20035;DHT22;10178;48.034;9.800;2023-09-18T12:41:36;16.80;99.90
20035;DHT22;10178;48.034;9.800;2023-09-18T12:44:04;16.80;99.90
20035;DHT22;10178;48.034;9.800;2023-09-18T12:46:31;17.10;99.90
20035;DHT22;10178;48.034;9.800;2023-09-18T12:48:58;17.20;99.90
20035;DHT22;10178;48.034;9.800;2023-09-18T12:51:30;17.20;99.90
20035;DHT22;10178;48.034;9.800;2023-09-18T12:54:01;17.40;99.90
20035;DHT22;10178;48.034;9.800;2023-09-18T12:56:32;17.70;99.90
20035;DHT22;10178;48.034;9.800;2023-09-18T12:58:58;17.60;99.90
20035;DHT22;10178;48.034;9.800;2023-09-18T13:01:29;17.50;99.90
20035;DHT22;10178;48.034;9.800;2023-09-18T13:03:55;17.60;99.90
20035;DHT22;10178;48.034;9.800;2023-09-18T13:06:31;17.60;99.90
20035;DHT22;10178;48.034;9.800;2023-09-18T13:09:15;17.50;99.90
20035;DHT22;10178;48.034;9.800;2023-09-18T13:11:57;17.40;99.90
20035;DHT22;10178;48.034;9.800;2023-09-18T13:14:23;17.60;99.90
20035;DHT22;10178;48.034;9.800;2023-09-18T13:16:49;17.60;99.90
20035;DHT22;10178;48.034;9.800;2023-09-18T13:19:15;17.70;99.90
20035;DHT22;10178;48.034;9.800;2023-09-18T13:21:49;18.00;99.90
20035;DHT22;10178;48.034;9.800;2023-09-18T13:24:31;18.30;99.90
20035;DHT22;10178;48.034;9.800;2023-09-18T13:26:57;18.40;99.90
20035;DHT22;10178;48.034;9.800;2023-09-18T13:29:24;18.00;99.90
20035;DHT22;10178;48.034;9.800;2023-09-18T13:31:51;17.90;99.90
20035;DHT22;10178;48.034;9.800;2023-09-18T13:34:17;17.80;99.90
20035;DHT22;10178;48.034;9.800;2023-09-18T13:36:46;17.70;99.90
20035;DHT22;10178;48.034;9.800;2023-09-18T13:39:12;17.80;99.90
20035;DHT22;10178;48.034;9.800;2023-09-18T13:41:39;18.10;99.90
20035;DHT22;10178;48.034;9.800;2023-09-18T13:44:06;18.30;99.90
20035;DHT22;10178;48.034;9.800;2023-09-18T13:46:32;18.40;99.90
20035;DHT22;10178;48.034;9.800;2023-09-18T13:49:04;18.40;99.90
20035;DHT22;10178;48.034;9.800;2023-09-18T13:51:31;18.80;99.90
20035;DHT22;10178;48.034;9.800;2023-09-18T13:53:57;18.80;99.90
20035;DHT22;10178;48.034;9.800;2023-09-18T13:56:23;18.80;99.90
20035;DHT22;10178;48.034;9.800;2023-09-18T13:58:54;18.80;99.90
20035;DHT22;10178;48.034;9.800;2023-09-18T14:01:25;18.80;99.90
20035;DHT22;10178;48.034;9.800;2023-09-18T14:03:53;18.80;99.90
20035;DHT22;10178;48.034;9.800;2023-09-18T14:06:19;18.70;99.90
20035;DHT22;10178;48.034;9.800;2023-09-18T14:09:00;18.80;99.90
20035;DHT22;10178;48.034;9.800;2023-09-18T14:11:33;18.90;99.90
20035;DHT22;10178;48.034;9.800;2023-09-18T14:14:15;19.00;99.90
20035;DHT22;10178;48.034;9.800;2023-09-18T14:16:43;18.90;99.90
20035;DHT22;10178;48.034;9.800;2023-09-18T14:19:09;18.80;99.90
20035;DHT22;10178;48.034;9.800;2023-09-18T14:21:43;18.80;99.90
20035;DHT22;10178;48.034;9.800;2023-09-18T14:24:19;18.90;99.90
20035;DHT22;10178;48.034;9.800;2023-09-18T14:26:48;19.00;99.90
20035;DHT22;10178;48.034;9.800;2023-09-18T14:29:14;19.20;99.90
20035;DHT22;10178;48.034;9.800;2023-09-18T14:31:40;19.30;99.90
20035;DHT22;10178;48.034;9.800;2023-09-18T14:34:18;19.40;99.90
20035;DHT22;10178;48.034;9.800;2023-09-18T14:36:45;19.50;99.90
20035;DHT22;10178;48.034;9.800;2023-09-18T14:39:11;19.40;99.90
20035;DHT22;10178;48.034;9.800;2023-09-18T14:41:38;19.40;99.90
20035;DHT22;10178;48.034;9.800;2023-09-18T14:44:05;19.40;99.90
20035;DHT22;10178;48.034;9.800;2023-09-18T14:46:31;19.40;99.90
20035;DHT22;10178;48.034;9.800;2023-09-18T14:49:00;19.30;99.90
20035;DHT22;10178;48.034;9.800;2023-09-18T14:51:27;19.40;99.90
20035;DHT22;10178;48.034;9.800;2023-09-18T14:53:55;19.30;99.90
20035;DHT22;10178;48.034;9.800;2023-09-18T14:56:21;19.20;99.90
20035;DHT22;10178;48.034;9.800;2023-09-18T14:58:48;19.20;99.90
20035;DHT22;10178;48.034;9.800;2023-09-18T15:01:13;19.20;99.90
20035;DHT22;10178;48.034;9.800;2023-09-18T15:03:40;19.00;99.90
20035;DHT22;10178;48.034;9.800;2023-09-18T15:06:06;18.90;99.90
20035;DHT22;10178;48.034;9.800;2023-09-18T15:08:33;18.90;99.90
20035;DHT22;10178;48.034;9.800;2023-09-18T15:10:59;18.80;99.90
20035;DHT22;10178;48.034;9.800;2023-09-18T15:13:25;18.80;99.90
20035;DHT22;10178;48.034;9.800;2023-09-18T15:15:50;18.80;99.90
20035;DHT22;10178;48.034;9.800;2023-09-18T15:18:16;19.00;99.90
20035;DHT22;10178;48.034;9.800;2023-09-18T15:20:42;19.10;99.90
20035;DHT22;10178;48.034;9.800;2023-09-18T15:23:08;19.10;99.90
20035;DHT22;10178;48.034;9.800;2023-09-18T15:25:33;19.10;99.90
20035;DHT22;10178;48.034;9.800;2023-09-18T15:28:07;19.00;99.90
20035;DHT22;10178;48.034;9.800;2023-09-18T15:30:33;19.00;99.90
20035;DHT22;10178;48.034;9.800;2023-09-18T15:33:01;19.10;99.90
20035;DHT22;10178;48.034;9.800;2023-09-18T15:35:28;19.20;99.90
20035;DHT22;10178;48.034;9.800;2023-09-18T15:37:53;19.00;99.90
20035;DHT22;10178;48.034;9.800;2023-09-18T15:40:21;18.90;99.90
20035;DHT22;10178;48.034;9.800;2023-09-18T15:42:51;18.80;99.90
20035;DHT22;10178;48.034;9.800;2023-09-18T15:45:17;18.80;99.90